»·PEaware :: N210AR L77-L88

N210AR :: L77-L88

FLIGHT INFORMATION

Flight Status: Arrived
Operator: Privately registered:
United States
More flights under this callsign
Pilot: Max S. (16657)
Aircraft: CESSNA 172 SKYHAWK
(C172)
More flights by this aircraft type
Origin: L77 Chiriaco Summit
United States
Destination: L88 New Cuyama
United States
More flights between these airports :: More routes between these airports
Route:
File this flight plan on PilotEdge
Remarks: ALPHABET CHALLENGE
Altitude:
(Current/Filed)
8,500ft
Speed:
(Current/Filed)
110kts
Departed: 21-Apr-20 08:46 AM
Arrived: 21-Apr-20 11:07 AM
Distance/Time
Traveled:
212nm/2:21
Distance/Time
To Go:
Arrived

Flight Plot

Page will automatically refresh every two minutes.


Map Options




Map Legend


Flown Route
Filed Route
Departure Airport
Arrival Airport
Navaid (VOR, NDB)
Fix

Horizontal Profiles

Position Reports

Time Latitude Longitude Heading Altitude Ground
Speed
21-Apr-20 08:18 33.661821 -115.718652 339 1694ft 0kts
21-Apr-20 08:19 33.661821 -115.718652 339 1694ft 0kts
21-Apr-20 08:20 33.661821 -115.718652 339 1694ft 0kts
21-Apr-20 08:21 33.661821 -115.718652 339 1694ft 0kts
21-Apr-20 08:22 33.661821 -115.718652 339 1694ft 0kts
21-Apr-20 08:23 33.661821 -115.718652 339 1694ft 0kts
21-Apr-20 08:24 33.661821 -115.718652 339 1694ft 0kts
21-Apr-20 08:25 33.661821 -115.718652 339 1694ft 0kts
21-Apr-20 08:26 33.661821 -115.718652 339 1694ft 0kts
21-Apr-20 08:27 33.661821 -115.718652 339 1694ft 0kts
21-Apr-20 08:28 33.661821 -115.718652 339 1694ft 0kts
21-Apr-20 08:29 33.661821 -115.718652 339 1694ft 0kts
21-Apr-20 08:30 33.661821 -115.718652 339 1694ft 0kts
21-Apr-20 08:31 33.661821 -115.718652 339 1694ft 0kts
21-Apr-20 08:32 33.661821 -115.718652 339 1694ft 0kts
21-Apr-20 08:33 33.661821 -115.718652 339 1694ft 0kts
21-Apr-20 08:34 33.661821 -115.718652 339 1694ft 0kts
21-Apr-20 08:35 33.661821 -115.718652 339 1694ft 0kts
21-Apr-20 08:36 33.661821 -115.718652 339 1694ft 0kts
21-Apr-20 08:37 33.661821 -115.718652 339 1694ft 0kts
21-Apr-20 08:38 33.661821 -115.718652 339 1694ft 0kts
21-Apr-20 08:39 33.661821 -115.718652 339 1694ft 0kts
21-Apr-20 08:40 33.661821 -115.718652 339 1694ft 0kts
21-Apr-20 08:41 33.661822 -115.718653 339 1694ft 0kts
21-Apr-20 08:42 33.662551 -115.719750 347 1694ft 0kts
21-Apr-20 08:43 33.662551 -115.719750 347 1694ft 0kts
21-Apr-20 08:45 33.663251 -115.719537 73 1694ft 11kts
21-Apr-20 08:46 33.665398 -115.706812 68 1878ft 79kts
21-Apr-20 08:47 33.666887 -115.680282 42 2700ft 75kts
21-Apr-20 08:48 33.672730 -115.694765 266 3028ft 103kts
21-Apr-20 08:49 33.666634 -115.732564 264 2957ft 119kts
21-Apr-20 08:50 33.676264 -115.764789 297 3310ft 99kts
21-Apr-20 08:51 33.686446 -115.796127 293 3620ft 99kts
21-Apr-20 08:52 33.697988 -115.820917 308 4396ft 72kts
21-Apr-20 08:53 33.713081 -115.839798 302 4883ft 83kts
21-Apr-20 08:54 33.721663 -115.859773 303 5646ft 64kts
21-Apr-20 08:55 33.730676 -115.879673 307 6172ft 71kts
21-Apr-20 08:56 33.740403 -115.899081 303 6746ft 70kts
21-Apr-20 08:57 33.748266 -115.921671 291 7153ft 82kts
21-Apr-20 08:58 33.756285 -115.944358 299 7685ft 76kts
21-Apr-20 08:59 33.764398 -115.967491 292 8191ft 69kts
21-Apr-20 09:00 33.771108 -115.991303 270 8495ft 88kts
21-Apr-20 09:01 33.773021 -116.024035 291 8498ft 103kts
21-Apr-20 09:02 33.783192 -116.057067 295 8497ft 105kts
21-Apr-20 09:03 33.794643 -116.091214 295 8440ft 112kts
21-Apr-20 09:04 33.806385 -116.126009 295 8428ft 111kts
21-Apr-20 09:05 33.818060 -116.160678 295 8416ft 111kts
21-Apr-20 09:06 33.829706 -116.195311 295 8447ft 109kts
21-Apr-20 09:06 33.839317 -116.223851 294 8439ft 110kts
21-Apr-20 09:08 33.846083 -116.265852 269 8417ft 114kts
21-Apr-20 09:09 33.843698 -116.303898 279 8395ft 111kts
21-Apr-20 09:09 33.848092 -116.334471 287 8376ft 110kts
21-Apr-20 09:10 33.856478 -116.369971 291 8358ft 109kts
21-Apr-20 09:12 33.867566 -116.411021 291 8333ft 108kts
21-Apr-20 09:12 33.875632 -116.439941 291 8321ft 109kts
21-Apr-20 09:13 33.885403 -116.474765 291 8296ft 109kts
21-Apr-20 09:14 33.895197 -116.509576 291 8273ft 108kts
21-Apr-20 09:15 33.904987 -116.544400 291 8246ft 108kts
21-Apr-20 09:16 33.915077 -116.580322 289 8229ft 114kts
21-Apr-20 09:17 33.925361 -116.617017 289 8212ft 115kts
21-Apr-20 09:18 33.934896 -116.651037 288 8195ft 115kts
21-Apr-20 09:19 33.943553 -116.688232 273 8198ft 115kts
21-Apr-20 09:20 33.943544 -116.727344 271 8201ft 115kts
21-Apr-20 09:21 33.943513 -116.766334 271 8204ft 115kts
21-Apr-20 09:22 33.943603 -116.805292 271 8206ft 115kts
21-Apr-20 09:23 33.943664 -116.841779 271 8565ft 104kts
21-Apr-20 09:24 33.943802 -116.879496 274 8559ft 114kts
21-Apr-20 09:25 33.954390 -116.915500 294 8559ft 115kts
21-Apr-20 09:26 33.968649 -116.949823 296 8558ft 114kts
21-Apr-20 09:27 33.982963 -116.983734 297 8557ft 114kts
21-Apr-20 09:28 33.997276 -117.017645 298 8557ft 113kts
21-Apr-20 09:29 34.011400 -117.051146 299 8556ft 113kts
21-Apr-20 09:30 34.025515 -117.084645 300 8556ft 113kts
21-Apr-20 09:31 34.039552 -117.117998 300 8556ft 114kts
21-Apr-20 09:32 34.053576 -117.151334 300 8557ft 114kts
21-Apr-20 09:33 34.066586 -117.182316 300 8557ft 114kts
21-Apr-20 09:34 34.079464 -117.213000 300 8558ft 114kts
21-Apr-20 09:35 34.091542 -117.241630 296 8557ft 114kts
21-Apr-20 09:36 34.096917 -117.268746 285 8557ft 105kts
21-Apr-20 09:37 34.099894 -117.295656 284 8558ft 104kts
21-Apr-20 09:38 34.102414 -117.321013 283 8562ft 105kts
21-Apr-20 09:39 34.105196 -117.349547 283 8562ft 105kts
21-Apr-20 09:40 34.107932 -117.377751 283 8562ft 105kts
21-Apr-20 09:41 34.110737 -117.406732 283 8562ft 105kts
21-Apr-20 09:42 34.113586 -117.436252 283 8562ft 105kts
21-Apr-20 09:43 34.116492 -117.466438 283 8562ft 105kts
21-Apr-20 09:44 34.119380 -117.496511 283 8562ft 105kts
21-Apr-20 09:45 34.122250 -117.526482 283 8563ft 105kts
21-Apr-20 09:46 34.124929 -117.554537 283 8563ft 105kts
21-Apr-20 09:47 34.127481 -117.581298 283 8563ft 105kts
21-Apr-20 09:48 34.130103 -117.608891 283 8564ft 105kts
21-Apr-20 09:49 34.132778 -117.637104 284 8565ft 106kts
21-Apr-20 09:50 34.135484 -117.665698 283 8567ft 107kts
21-Apr-20 09:51 34.138300 -117.695526 283 8568ft 108kts
21-Apr-20 09:52 34.141083 -117.725093 284 8569ft 109kts
21-Apr-20 09:53 34.143909 -117.755188 284 8570ft 110kts
21-Apr-20 09:54 34.146757 -117.785595 284 8570ft 110kts
21-Apr-20 09:55 34.149469 -117.816547 283 8571ft 111kts
21-Apr-20 09:56 34.151571 -117.846825 283 8572ft 112kts
21-Apr-20 09:57 34.153927 -117.876758 283 8573ft 112kts
21-Apr-20 09:58 34.156503 -117.906253 284 8574ft 112kts
21-Apr-20 09:59 34.159115 -117.935183 284 8575ft 112kts
21-Apr-20 10:00 34.161660 -117.963097 284 8576ft 112kts
21-Apr-20 10:01 34.164093 -117.989719 284 8577ft 112kts
21-Apr-20 10:02 34.166472 -118.015773 284 8578ft 112kts
21-Apr-20 10:03 34.168757 -118.040822 284 8579ft 112kts
21-Apr-20 10:04 34.171113 -118.066517 284 8525ft 114kts
21-Apr-20 10:05 34.173366 -118.091537 284 8531ft 112kts
21-Apr-20 10:06 34.175662 -118.116899 284 8528ft 111kts
21-Apr-20 10:07 34.177871 -118.141349 284 8526ft 111kts
21-Apr-20 10:08 34.180110 -118.166182 284 8523ft 110kts
21-Apr-20 10:09 34.182302 -118.190558 284 8520ft 109kts
21-Apr-20 10:10 34.184441 -118.214391 284 8517ft 108kts
21-Apr-20 10:11 34.186503 -118.237415 284 8514ft 107kts
21-Apr-20 10:12 34.188561 -118.260452 284 8512ft 107kts
21-Apr-20 10:13 34.189810 -118.283086 286 8509ft 105kts
21-Apr-20 10:14 34.194709 -118.304166 297 8506ft 102kts
21-Apr-20 10:15 34.202625 -118.324834 302 8504ft 100kts
21-Apr-20 10:16 34.211574 -118.344652 303 8504ft 100kts
21-Apr-20 10:17 34.220441 -118.364122 303 8505ft 100kts
21-Apr-20 10:18 34.229643 -118.384374 304 8506ft 100kts
21-Apr-20 10:19 34.238800 -118.404571 304 8507ft 103kts
21-Apr-20 10:20 34.249014 -118.427157 304 8509ft 104kts
21-Apr-20 10:21 34.260869 -118.446070 308 8512ft 103kts
21-Apr-20 10:22 34.271970 -118.466129 308 8514ft 103kts
21-Apr-20 10:23 34.284134 -118.488045 308 8517ft 103kts
21-Apr-20 10:24 34.297578 -118.512235 308 8520ft 103kts
21-Apr-20 10:25 34.312012 -118.538207 308 8523ft 103kts
21-Apr-20 10:26 34.326864 -118.564946 308 8526ft 103kts
21-Apr-20 10:27 34.342572 -118.593247 308 8529ft 103kts
21-Apr-20 10:28 34.358948 -118.622776 308 8531ft 103kts
21-Apr-20 10:29 34.375645 -118.652911 308 8534ft 104kts
21-Apr-20 10:30 34.396223 -118.690066 308 8535ft 105kts
21-Apr-20 10:31 34.417894 -118.729253 309 8534ft 106kts
21-Apr-20 10:32 34.440673 -118.770478 309 8532ft 108kts
21-Apr-20 10:33 34.463953 -118.812657 309 8531ft 109kts
21-Apr-20 10:34 34.487476 -118.855327 309 8531ft 109kts
21-Apr-20 10:35 34.510978 -118.898018 309 8531ft 109kts
21-Apr-20 10:36 34.528615 -118.930087 309 8531ft 109kts
21-Apr-20 10:37 34.528615 -118.930087 309 8531ft 109kts
21-Apr-20 10:38 34.539887 -118.950668 309 8530ft 109kts
21-Apr-20 10:39 34.549717 -118.968599 309 8530ft 109kts
21-Apr-20 10:40 34.558830 -118.985259 309 8530ft 109kts
21-Apr-20 10:41 34.575755 -119.016146 308 8531ft 109kts
21-Apr-20 10:42 34.592720 -119.047108 308 8530ft 109kts
21-Apr-20 10:43 34.609731 -119.078178 308 8530ft 109kts
21-Apr-20 10:44 34.626638 -119.109081 308 8530ft 109kts
21-Apr-20 10:45 34.643617 -119.140142 308 8530ft 109kts
21-Apr-20 10:46 34.660567 -119.171176 308 8530ft 109kts
21-Apr-20 10:47 34.677479 -119.202175 308 8530ft 109kts
21-Apr-20 10:48 34.694422 -119.233232 308 8530ft 109kts
21-Apr-20 10:49 34.711290 -119.264164 308 8530ft 109kts
21-Apr-20 10:50 34.728184 -119.295173 308 8533ft 109kts
21-Apr-20 10:51 34.744919 -119.325916 308 8542ft 108kts
21-Apr-20 10:52 34.762718 -119.358562 308 8133ft 120kts
21-Apr-20 10:53 34.781275 -119.392718 308 7622ft 120kts
21-Apr-20 10:54 34.799688 -119.426633 308 7106ft 117kts
21-Apr-20 10:55 34.817478 -119.459427 307 6591ft 114kts
21-Apr-20 10:56 34.834947 -119.491653 307 6074ft 113kts
21-Apr-20 10:57 34.852202 -119.523534 307 5555ft 112kts
21-Apr-20 10:58 34.869448 -119.555381 307 5035ft 112kts
21-Apr-20 10:59 34.886715 -119.587363 306 4516ft 113kts
21-Apr-20 11:00 34.904164 -119.619684 306 4000ft 115kts
21-Apr-20 11:01 34.921884 -119.652746 301 3470ft 118kts
21-Apr-20 11:02 34.926196 -119.682110 283 3358ft 68kts
21-Apr-20 11:03 34.930675 -119.701301 298 3362ft 63kts
21-Apr-20 11:05 34.942608 -119.708899 16 3083ft 65kts
21-Apr-20 11:06 34.939524 -119.684509 111 2190ft 63kts
21-Apr-20 11:07 34.939604 -119.684817 295 2182ft 39kts
21-Apr-20 11:08 34.943368 -119.690746 3 2150ft 6kts
21-Apr-20 11:09 34.943535 -119.690701 15 2150ft 0kts
21-Apr-20 11:10 34.943535 -119.690701 15 2150ft 0kts
21-Apr-20 11:11 34.943535 -119.690701 15 2150ft 0kts
21-Apr-20 11:12 34.943535 -119.690701 15 2150ft 0kts

Navigation Log

Ident Type
Flight plan parsing failed, navigation log unavailable